Time,TemperatureF,DewpointF,PressureIn,WindDirection,WindDirectionDegrees,WindSpeedMPH,WindSpeedGustMPH,Humidity,HourlyPrecipIn,Conditions,Clouds,dailyrainin,SolarRadiationWatts/m^2,SoftwareType,DateUTC
2013-10-09 00:14:00,78.0,72.0,-100.00,North,1,2.0,5.0,83,0.00,,,0.20,0.000000,,2013-10-09 04:14:00,
2013-10-09 00:24:00,78.0,72.0,-100.00,North,1,2.0,5.0,83,0.00,,,0.20,0.000000,,2013-10-09 04:24:00,
2013-10-09 00:34:00,78.0,72.0,-100.00,North,1,2.0,5.0,83,0.00,,,0.20,0.000000,,2013-10-09 04:34:00,
2013-10-09 01:13:00,76.0,72.0,-100.00,WNW,300,1.0,3.0,87,0.00,,,0.20,0.000000,,2013-10-09 05:13:00,
2013-10-09 01:22:00,76.0,72.0,-100.00,WNW,300,1.0,3.0,87,0.00,,,0.20,0.000000,,2013-10-09 05:22:00,
2013-10-09 01:34:00,76.0,72.0,-100.00,WNW,300,1.0,3.0,87,0.00,,,0.20,0.000000,,2013-10-09 05:34:00,
2013-10-09 02:12:00,75.0,72.0,-100.00,NW,314,2.0,4.0,90,0.00,,,0.20,0.000000,,2013-10-09 06:12:00,
2013-10-09 02:22:00,75.0,72.0,-100.00,NW,314,2.0,4.0,90,0.00,,,0.20,0.000000,,2013-10-09 06:22:00,
2013-10-09 02:33:00,75.0,72.0,-100.00,NW,314,2.0,4.0,90,0.00,,,0.20,0.000000,,2013-10-09 06:33:00,
2013-10-09 03:12:00,74.0,71.0,-100.00,SW,220,1.0,3.0,91,0.00,,,0.20,0.000000,,2013-10-09 07:12:00,
2013-10-09 03:22:00,74.0,71.0,-100.00,SW,220,1.0,3.0,91,0.00,,,0.20,0.000000,,2013-10-09 07:22:00,
2013-10-09 03:32:00,74.0,71.0,-100.00,SW,220,1.0,3.0,91,0.00,,,0.20,0.000000,,2013-10-09 07:32:00,
2013-10-09 04:12:00,74.0,71.0,-100.00,West,277,3.0,4.0,91,0.00,,,0.20,0.000000,,2013-10-09 08:12:00,
2013-10-09 04:23:00,74.0,71.0,-100.00,West,277,3.0,4.0,91,0.00,,,0.20,0.000000,,2013-10-09 08:23:00,
2013-10-09 04:32:00,74.0,71.0,-100.00,West,277,3.0,4.0,91,0.00,,,0.20,0.000000,,2013-10-09 08:32:00,
2013-10-09 05:11:00,77.0,72.0,-100.00,WNW,295,3.0,6.0,85,0.00,,,0.20,0.000000,,2013-10-09 09:11:00,
2013-10-09 05:22:00,77.0,72.0,-100.00,WNW,295,3.0,6.0,85,0.00,,,0.20,0.000000,,2013-10-09 09:22:00,
2013-10-09 05:33:00,77.0,72.0,-100.00,WNW,295,3.0,6.0,85,0.00,,,0.20,0.000000,,2013-10-09 09:33:00,
2013-10-09 06:13:00,74.0,70.0,-100.00,NW,313,1.0,4.0,87,0.00,,,0.20,0.000000,,2013-10-09 10:13:00,
2013-10-09 06:23:00,74.0,70.0,-100.00,NW,313,1.0,4.0,87,0.00,,,0.20,0.000000,,2013-10-09 10:23:00,
2013-10-09 06:33:00,74.0,70.0,-100.00,NW,313,1.0,4.0,87,0.00,,,0.20,0.000000,,2013-10-09 10:33:00,
2013-10-09 07:12:00,74.0,71.0,-100.00,West,279,2.0,4.0,90,0.00,,,0.15,0.000000,,2013-10-09 11:12:00,
2013-10-09 07:22:00,74.0,71.0,-100.00,West,279,2.0,4.0,90,0.00,,,0.15,0.000000,,2013-10-09 11:22:00,
2013-10-09 07:33:00,74.0,71.0,-100.00,West,279,2.0,4.0,90,0.00,,,0.15,0.000000,,2013-10-09 11:33:00,
2013-10-09 08:12:00,75.0,72.0,-100.00,West,272,3.0,4.0,89,0.00,,,0.15,4.000000,,2013-10-09 12:12:00,
2013-10-09 08:22:00,75.0,72.0,-100.00,West,272,3.0,4.0,89,0.00,,,0.15,4.000000,,2013-10-09 12:22:00,
2013-10-09 08:32:00,75.0,72.0,-100.00,West,272,3.0,4.0,89,0.00,,,0.15,4.000000,,2013-10-09 12:32:00,
2013-10-09 09:12:00,82.0,72.0,-100.00,WNW,285,3.0,5.0,71,0.00,,,0.15,124.000000,,2013-10-09 13:12:00,
2013-10-09 09:22:00,82.0,72.0,-100.00,WNW,285,3.0,5.0,71,0.00,,,0.15,124.000000,,2013-10-09 13:22:00,
2013-10-09 09:33:00,82.0,72.0,-100.00,WNW,285,3.0,5.0,71,0.00,,,0.15,124.000000,,2013-10-09 13:33:00,
2013-10-09 10:11:00,84.0,70.0,-100.00,NW,320,4.0,8.0,64,0.00,,,0.14,267.000000,,2013-10-09 14:11:00,
2013-10-09 10:22:00,84.0,70.0,-100.00,NW,320,4.0,8.0,64,0.00,,,0.14,267.000000,,2013-10-09 14:22:00,
2013-10-09 10:32:00,84.0,70.0,-100.00,NW,320,4.0,8.0,64,0.00,,,0.14,267.000000,,2013-10-09 14:32:00,
2013-10-09 11:12:00,87.0,70.0,-100.00,NW,305,4.0,8.0,57,0.00,,,0.14,484.000000,,2013-10-09 15:12:00,
2013-10-09 11:22:00,87.0,70.0,-100.00,NW,305,4.0,8.0,57,0.00,,,0.14,484.000000,,2013-10-09 15:22:00,
2013-10-09 11:33:00,87.0,70.0,-100.00,NW,305,4.0,8.0,57,0.00,,,0.14,484.000000,,2013-10-09 15:33:00,
2013-10-09 12:13:00,88.0,69.0,-100.00,NW,316,4.0,9.0,53,0.00,,,0.14,687.000000,,2013-10-09 16:13:00,
2013-10-09 12:24:00,88.0,69.0,-100.00,NW,316,4.0,9.0,53,0.00,,,0.14,687.000000,,2013-10-09 16:24:00,
2013-10-09 12:33:00,88.0,69.0,-100.00,NW,316,4.0,9.0,53,0.00,,,0.14,687.000000,,2013-10-09 16:33:00,
2013-10-09 13:12:00,87.0,69.0,-100.00,NW,326,3.0,7.0,55,0.00,,,-99.99,568.000000,,2013-10-09 17:12:00,
2013-10-09 13:22:00,87.0,69.0,-100.00,NW,326,3.0,7.0,55,0.00,,,-99.99,568.000000,,2013-10-09 17:22:00,
2013-10-09 13:33:00,87.0,69.0,-100.00,NW,326,3.0,7.0,55,0.00,,,-99.99,568.000000,,2013-10-09 17:33:00,
2013-10-09 14:12:00,85.0,67.0,-100.00,NW,312,4.0,9.0,55,0.00,,,0.00,430.000000,,2013-10-09 18:12:00,
2013-10-09 14:22:00,85.0,67.0,-100.00,NW,312,4.0,9.0,55,0.00,,,0.00,430.000000,,2013-10-09 18:22:00,
2013-10-09 14:32:00,85.0,67.0,-100.00,NW,312,4.0,9.0,55,0.00,,,0.00,430.000000,,2013-10-09 18:32:00,
2013-10-09 15:12:00,88.0,64.0,-100.00,WNW,286,3.0,7.0,45,0.00,,,0.00,485.000000,,2013-10-09 19:12:00,
2013-10-09 15:22:00,88.0,64.0,-100.00,WNW,286,3.0,7.0,45,0.00,,,0.00,485.000000,,2013-10-09 19:22:00,
2013-10-09 15:32:00,88.0,64.0,-100.00,WNW,286,3.0,7.0,45,0.00,,,0.00,485.000000,,2013-10-09 19:32:00,
2013-10-09 16:11:00,83.0,66.0,-100.00,North,352,4.0,7.0,57,0.00,,,0.00,310.000000,,2013-10-09 20:11:00,
2013-10-09 16:22:00,83.0,66.0,-100.00,North,352,4.0,7.0,57,0.00,,,0.00,310.000000,,2013-10-09 20:22:00,
2013-10-09 16:32:00,83.0,66.0,-100.00,North,352,4.0,7.0,57,0.00,,,0.00,310.000000,,2013-10-09 20:32:00,
2013-10-09 17:12:00,84.0,69.0,-100.00,North,0,4.0,7.0,61,0.00,,,0.00,209.000000,,2013-10-09 21:12:00,
2013-10-09 17:23:00,84.0,69.0,-100.00,North,0,4.0,7.0,61,0.00,,,0.00,209.000000,,2013-10-09 21:23:00,
2013-10-09 17:34:00,84.0,69.0,-100.00,North,0,4.0,7.0,61,0.00,,,0.00,209.000000,,2013-10-09 21:34:00,
2013-10-09 18:13:00,83.0,70.0,-100.00,North,350,5.0,9.0,66,0.00,,,0.00,222.000000,,2013-10-09 22:13:00,
2013-10-09 18:24:00,83.0,70.0,-100.00,North,350,5.0,9.0,66,0.00,,,0.00,222.000000,,2013-10-09 22:24:00,
2013-10-09 18:34:00,83.0,70.0,-100.00,North,350,5.0,9.0,66,0.00,,,0.00,222.000000,,2013-10-09 22:34:00,
2013-10-09 19:12:00,83.0,70.0,-100.00,North,352,4.0,8.0,66,0.00,,,0.00,123.000000,,2013-10-09 23:12:00,
2013-10-09 19:22:00,83.0,70.0,-100.00,North,352,4.0,8.0,66,0.00,,,0.00,123.000000,,2013-10-09 23:22:00,
2013-10-09 19:34:00,83.0,70.0,-100.00,North,352,4.0,8.0,66,0.00,,,0.00,123.000000,,2013-10-09 23:34:00,
2013-10-09 20:12:00,79.0,72.0,-100.00,North,349,4.0,7.0,78,0.00,,,0.00,10.000000,,2013-10-10 00:12:00,
2013-10-09 20:22:00,79.0,72.0,-100.00,North,349,4.0,7.0,78,0.00,,,0.00,10.000000,,2013-10-10 00:22:00,
2013-10-09 20:32:00,79.0,72.0,-100.00,North,349,4.0,7.0,78,0.00,,,0.00,10.000000,,2013-10-10 00:32:00,
2013-10-09 21:11:00,78.0,72.0,-100.00,North,352,3.0,5.0,82,0.00,,,0.00,0.000000,,2013-10-10 01:11:00,
2013-10-09 21:22:00,78.0,72.0,-100.00,North,352,3.0,5.0,82,0.00,,,0.00,0.000000,,2013-10-10 01:22:00,
2013-10-09 21:32:00,78.0,72.0,-100.00,North,352,3.0,5.0,82,0.00,,,0.00,0.000000,,2013-10-10 01:32:00,
2013-10-09 22:12:00,77.0,71.0,-100.00,North,350,2.0,5.0,83,0.00,,,0.00,0.000000,,2013-10-10 02:12:00,
2013-10-09 22:22:00,77.0,71.0,-100.00,North,350,2.0,5.0,83,0.00,,,0.00,0.000000,,2013-10-10 02:22:00,
2013-10-09 22:33:00,77.0,71.0,-100.00,North,350,2.0,5.0,83,0.00,,,0.00,0.000000,,2013-10-10 02:33:00,
2013-10-09 23:12:00,77.0,72.0,-100.00,North,1,3.0,4.0,85,0.00,,,0.00,0.000000,,2013-10-10 03:12:00,
2013-10-09 23:22:00,77.0,72.0,-100.00,North,1,3.0,4.0,85,0.00,,,0.00,0.000000,,2013-10-10 03:22:00,
2013-10-09 23:34:00,77.0,72.0,-100.00,North,1,3.0,4.0,85,0.00,,,0.00,0.000000,,2013-10-10 03:34:00,